sensor_id;sensor_type;location;lat;lon;timestamp;P1;durP1;ratioP1;P2;durP2;ratioP2
61673;SDS011;47573;43.832;5.974;2022-08-07T00:01:58;33.95;;;19.95;;
61673;SDS011;47573;43.832;5.974;2022-08-07T00:06:59;39.67;;;22.83;;
61673;SDS011;47573;43.832;5.974;2022-08-07T00:11:59;41.42;;;22.98;;
61673;SDS011;47573;43.832;5.974;2022-08-07T00:17:01;42.90;;;25.00;;
61673;SDS011;47573;43.832;5.974;2022-08-07T00:22:02;40.85;;;24.02;;
61673;SDS011;47573;43.832;5.974;2022-08-07T00:27:03;43.20;;;25.25;;
61673;SDS011;47573;43.832;5.974;2022-08-07T00:32:05;42.05;;;25.45;;
61673;SDS011;47573;43.832;5.974;2022-08-07T00:37:06;43.55;;;23.98;;
61673;SDS011;47573;43.832;5.974;2022-08-07T00:42:07;40.78;;;24.17;;
61673;SDS011;47573;43.832;5.974;2022-08-07T00:47:09;51.42;;;24.88;;
61673;SDS011;47573;43.832;5.974;2022-08-07T00:52:10;44.53;;;25.15;;
61673;SDS011;47573;43.832;5.974;2022-08-07T00:57:11;50.25;;;25.35;;
61673;SDS011;47573;43.832;5.974;2022-08-07T01:02:13;40.45;;;23.85;;
61673;SDS011;47573;43.832;5.974;2022-08-07T01:07:14;47.38;;;25.10;;
61673;SDS011;47573;43.832;5.974;2022-08-07T01:12:15;44.17;;;25.17;;
61673;SDS011;47573;43.832;5.974;2022-08-07T01:17:17;46.22;;;25.73;;
61673;SDS011;47573;43.832;5.974;2022-08-07T01:22:20;43.53;;;26.10;;
61673;SDS011;47573;43.832;5.974;2022-08-07T01:27:21;41.58;;;24.00;;
61673;SDS011;47573;43.832;5.974;2022-08-07T01:32:22;43.45;;;24.65;;
61673;SDS011;47573;43.832;5.974;2022-08-07T01:37:24;43.15;;;24.35;;
61673;SDS011;47573;43.832;5.974;2022-08-07T01:42:26;42.47;;;24.30;;
61673;SDS011;47573;43.832;5.974;2022-08-07T01:47:27;47.65;;;24.73;;
61673;SDS011;47573;43.832;5.974;2022-08-07T01:52:29;40.38;;;23.20;;
61673;SDS011;47573;43.832;5.974;2022-08-07T01:57:32;37.63;;;23.08;;
61673;SDS011;47573;43.832;5.974;2022-08-07T02:02:37;38.63;;;23.52;;
61673;SDS011;47573;43.832;5.974;2022-08-07T02:07:45;38.30;;;22.00;;
61673;SDS011;47573;43.832;5.974;2022-08-07T02:12:49;45.90;;;25.17;;
61673;SDS011;47573;43.832;5.974;2022-08-07T02:17:51;37.97;;;21.45;;
61673;SDS011;47573;43.832;5.974;2022-08-07T02:22:55;31.70;;;20.38;;
61673;SDS011;47573;43.832;5.974;2022-08-07T02:27:58;35.03;;;20.00;;
61673;SDS011;47573;43.832;5.974;2022-08-07T02:33:00;32.55;;;19.98;;
61673;SDS011;47573;43.832;5.974;2022-08-07T02:38:03;34.70;;;19.20;;
61673;SDS011;47573;43.832;5.974;2022-08-07T02:43:04;36.45;;;20.13;;
61673;SDS011;47573;43.832;5.974;2022-08-07T02:48:05;31.63;;;19.38;;
61673;SDS011;47573;43.832;5.974;2022-08-07T02:53:08;29.95;;;18.77;;
61673;SDS011;47573;43.832;5.974;2022-08-07T02:58:12;25.08;;;16.95;;
61673;SDS011;47573;43.832;5.974;2022-08-07T03:03:16;28.88;;;16.95;;
61673;SDS011;47573;43.832;5.974;2022-08-07T03:08:20;27.13;;;16.85;;
61673;SDS011;47573;43.832;5.974;2022-08-07T03:13:21;29.17;;;17.80;;
61673;SDS011;47573;43.832;5.974;2022-08-07T03:18:22;23.85;;;15.40;;
61673;SDS011;47573;43.832;5.974;2022-08-07T03:23:24;24.65;;;15.88;;
61673;SDS011;47573;43.832;5.974;2022-08-07T03:28:27;25.17;;;15.55;;
61673;SDS011;47573;43.832;5.974;2022-08-07T03:33:29;23.58;;;15.10;;
61673;SDS011;47573;43.832;5.974;2022-08-07T03:38:31;22.67;;;15.50;;
61673;SDS011;47573;43.832;5.974;2022-08-07T03:43:32;24.60;;;15.10;;
61673;SDS011;47573;43.832;5.974;2022-08-07T03:48:33;24.45;;;15.30;;
61673;SDS011;47573;43.832;5.974;2022-08-07T03:53:37;24.73;;;15.40;;
61673;SDS011;47573;43.832;5.974;2022-08-07T03:58:37;26.65;;;15.55;;
61673;SDS011;47573;43.832;5.974;2022-08-07T04:03:38;23.33;;;13.68;;
61673;SDS011;47573;43.832;5.974;2022-08-07T04:08:40;20.02;;;14.05;;
61673;SDS011;47573;43.832;5.974;2022-08-07T04:13:41;21.75;;;14.13;;
61673;SDS011;47573;43.832;5.974;2022-08-07T04:18:42;21.08;;;13.20;;
61673;SDS011;47573;43.832;5.974;2022-08-07T04:23:44;19.15;;;13.18;;
61673;SDS011;47573;43.832;5.974;2022-08-07T04:28:45;19.05;;;12.82;;
61673;SDS011;47573;43.832;5.974;2022-08-07T04:33:45;17.08;;;11.57;;
61673;SDS011;47573;43.832;5.974;2022-08-07T04:38:48;17.13;;;12.05;;
61673;SDS011;47573;43.832;5.974;2022-08-07T04:43:48;17.83;;;12.05;;
61673;SDS011;47573;43.832;5.974;2022-08-07T04:48:53;18.23;;;11.85;;
61673;SDS011;47573;43.832;5.974;2022-08-07T04:54:01;17.05;;;11.75;;
61673;SDS011;47573;43.832;5.974;2022-08-07T04:59:07;14.77;;;9.60;;
61673;SDS011;47573;43.832;5.974;2022-08-07T05:04:13;13.00;;;9.57;;
61673;SDS011;47573;43.832;5.974;2022-08-07T05:09:21;68.60;;;22.33;;
61673;SDS011;47573;43.832;5.974;2022-08-07T05:14:26;36.67;;;13.45;;
61673;SDS011;47573;43.832;5.974;2022-08-07T05:19:33;21.35;;;12.00;;
61673;SDS011;47573;43.832;5.974;2022-08-07T05:24:38;17.40;;;10.20;;
61673;SDS011;47573;43.832;5.974;2022-08-07T05:29:40;14.30;;;9.18;;
61673;SDS011;47573;43.832;5.974;2022-08-07T05:34:42;15.40;;;9.23;;
61673;SDS011;47573;43.832;5.974;2022-08-07T05:39:45;14.02;;;9.43;;
61673;SDS011;47573;43.832;5.974;2022-08-07T05:44:47;16.15;;;9.13;;
61673;SDS011;47573;43.832;5.974;2022-08-07T05:49:48;15.48;;;9.48;;
61673;SDS011;47573;43.832;5.974;2022-08-07T05:54:51;12.00;;;9.02;;
61673;SDS011;47573;43.832;5.974;2022-08-07T05:59:52;14.38;;;9.52;;
61673;SDS011;47573;43.832;5.974;2022-08-07T06:04:55;29.13;;;12.68;;
61673;SDS011;47573;43.832;5.974;2022-08-07T06:09:59;39.60;;;13.32;;
61673;SDS011;47573;43.832;5.974;2022-08-07T06:15:00;11.55;;;9.40;;
61673;SDS011;47573;43.832;5.974;2022-08-07T06:20:01;13.23;;;10.00;;
61673;SDS011;47573;43.832;5.974;2022-08-07T06:25:04;85.68;;;26.95;;
61673;SDS011;47573;43.832;5.974;2022-08-07T06:30:06;16.60;;;9.85;;
61673;SDS011;47573;43.832;5.974;2022-08-07T06:35:07;13.90;;;9.15;;
61673;SDS011;47573;43.832;5.974;2022-08-07T06:40:10;15.18;;;9.40;;
61673;SDS011;47573;43.832;5.974;2022-08-07T06:45:12;13.32;;;9.77;;
61673;SDS011;47573;43.832;5.974;2022-08-07T06:50:15;22.33;;;10.38;;
61673;SDS011;47573;43.832;5.974;2022-08-07T06:55:18;13.30;;;10.23;;
61673;SDS011;47573;43.832;5.974;2022-08-07T07:00:23;768.60;;;269.38;;
61673;SDS011;47573;43.832;5.974;2022-08-07T07:05:24;28.23;;;13.75;;
61673;SDS011;47573;43.832;5.974;2022-08-07T07:10:27;268.75;;;75.88;;
61673;SDS011;47573;43.832;5.974;2022-08-07T07:15:30;14.10;;;11.23;;
61673;SDS011;47573;43.832;5.974;2022-08-07T07:20:34;15.00;;;10.98;;
61673;SDS011;47573;43.832;5.974;2022-08-07T07:25:39;14.38;;;11.00;;
61673;SDS011;47573;43.832;5.974;2022-08-07T07:30:44;12.63;;;10.90;;
61673;SDS011;47573;43.832;5.974;2022-08-07T07:35:50;12.80;;;10.43;;
61673;SDS011;47573;43.832;5.974;2022-08-07T07:40:55;55.38;;;21.10;;
61673;SDS011;47573;43.832;5.974;2022-08-07T07:45:59;15.63;;;10.50;;
61673;SDS011;47573;43.832;5.974;2022-08-07T07:51:03;15.68;;;10.57;;
61673;SDS011;47573;43.832;5.974;2022-08-07T07:56:06;13.82;;;10.65;;
61673;SDS011;47573;43.832;5.974;2022-08-07T08:01:09;17.33;;;10.80;;
61673;SDS011;47573;43.832;5.974;2022-08-07T08:06:10;14.98;;;10.75;;
61673;SDS011;47573;43.832;5.974;2022-08-07T08:11:13;14.82;;;10.43;;
61673;SDS011;47573;43.832;5.974;2022-08-07T08:16:15;17.73;;;11.00;;
61673;SDS011;47573;43.832;5.974;2022-08-07T08:21:17;28.25;;;14.18;;
61673;SDS011;47573;43.832;5.974;2022-08-07T08:26:20;17.63;;;12.80;;
61673;SDS011;47573;43.832;5.974;2022-08-07T08:31:22;250.10;;;70.10;;
61673;SDS011;47573;43.832;5.974;2022-08-07T08:36:25;40.42;;;16.42;;
61673;SDS011;47573;43.832;5.974;2022-08-07T08:41:30;17.13;;;11.05;;
61673;SDS011;47573;43.832;5.974;2022-08-07T08:46:40;16.30;;;11.52;;
61673;SDS011;47573;43.832;5.974;2022-08-07T08:51:46;15.80;;;11.48;;
61673;SDS011;47573;43.832;5.974;2022-08-07T08:56:56;14.82;;;11.32;;
61673;SDS011;47573;43.832;5.974;2022-08-07T09:02:04;409.45;;;181.75;;
61673;SDS011;47573;43.832;5.974;2022-08-07T09:07:10;415.70;;;184.40;;
61673;SDS011;47573;43.832;5.974;2022-08-07T09:12:19;232.68;;;103.82;;
61673;SDS011;47573;43.832;5.974;2022-08-07T09:17:34;157.00;;;72.95;;
61673;SDS011;47573;43.832;5.974;2022-08-07T09:22:43;141.27;;;61.17;;
61673;SDS011;47573;43.832;5.974;2022-08-07T09:27:56;121.38;;;55.45;;
61673;SDS011;47573;43.832;5.974;2022-08-07T09:33:05;155.30;;;62.75;;
61673;SDS011;47573;43.832;5.974;2022-08-07T09:38:16;108.45;;;50.40;;
61673;SDS011;47573;43.832;5.974;2022-08-07T09:43:27;92.78;;;44.85;;
61673;SDS011;47573;43.832;5.974;2022-08-07T09:48:40;92.03;;;41.97;;
61673;SDS011;47573;43.832;5.974;2022-08-07T09:53:48;77.80;;;38.05;;
61673;SDS011;47573;43.832;5.974;2022-08-07T09:58:58;73.78;;;36.97;;
61673;SDS011;47573;43.832;5.974;2022-08-07T10:15:27;64.30;;;31.80;;
61673;SDS011;47573;43.832;5.974;2022-08-07T10:20:38;57.78;;;30.08;;
61673;SDS011;47573;43.832;5.974;2022-08-07T10:25:49;55.58;;;28.08;;
61673;SDS011;47573;43.832;5.974;2022-08-07T10:31:06;49.00;;;25.25;;
61673;SDS011;47573;43.832;5.974;2022-08-07T10:36:27;43.75;;;23.85;;
61673;SDS011;47573;43.832;5.974;2022-08-07T10:41:38;41.83;;;23.13;;
61673;SDS011;47573;43.832;5.974;2022-08-07T10:46:46;38.17;;;21.27;;
61673;SDS011;47573;43.832;5.974;2022-08-07T10:51:54;35.10;;;20.38;;
61673;SDS011;47573;43.832;5.974;2022-08-07T10:57:00;32.28;;;19.17;;
61673;SDS011;47573;43.832;5.974;2022-08-07T11:02:10;33.00;;;18.52;;
61673;SDS011;47573;43.832;5.974;2022-08-07T11:07:20;121.35;;;75.05;;
61673;SDS011;47573;43.832;5.974;2022-08-07T11:12:32;95.75;;;60.70;;
61673;SDS011;47573;43.832;5.974;2022-08-07T11:17:40;117.05;;;69.78;;
61673;SDS011;47573;43.832;5.974;2022-08-07T11:22:47;79.10;;;49.63;;
61673;SDS011;47573;43.832;5.974;2022-08-07T11:27:56;63.45;;;38.72;;
61673;SDS011;47573;43.832;5.974;2022-08-07T11:33:05;79.63;;;52.70;;
61673;SDS011;47573;43.832;5.974;2022-08-07T11:38:16;64.57;;;40.90;;
61673;SDS011;47573;43.832;5.974;2022-08-07T11:43:34;241.55;;;86.57;;
61673;SDS011;47573;43.832;5.974;2022-08-07T11:48:58;67.18;;;35.65;;
61673;SDS011;47573;43.832;5.974;2022-08-07T11:54:18;47.03;;;30.38;;
61673;SDS011;47573;43.832;5.974;2022-08-07T11:59:39;42.57;;;28.53;;
61673;SDS011;47573;43.832;5.974;2022-08-07T12:05:07;76.40;;;36.70;;
61673;SDS011;47573;43.832;5.974;2022-08-07T12:10:16;188.40;;;83.18;;
61673;SDS011;47573;43.832;5.974;2022-08-07T12:15:25;157.50;;;95.88;;
61673;SDS011;47573;43.832;5.974;2022-08-07T12:20:32;124.85;;;76.90;;
61673;SDS011;47573;43.832;5.974;2022-08-07T12:25:38;99.18;;;58.50;;
61673;SDS011;47573;43.832;5.974;2022-08-07T12:30:44;642.83;;;219.00;;
61673;SDS011;47573;43.832;5.974;2022-08-07T12:35:50;66.55;;;43.22;;
61673;SDS011;47573;43.832;5.974;2022-08-07T12:40:52;67.97;;;41.03;;
61673;SDS011;47573;43.832;5.974;2022-08-07T12:45:55;54.63;;;36.40;;
61673;SDS011;47573;43.832;5.974;2022-08-07T12:51:09;185.25;;;115.65;;
61673;SDS011;47573;43.832;5.974;2022-08-07T12:56:15;234.90;;;145.30;;
61673;SDS011;47573;43.832;5.974;2022-08-07T13:01:27;157.23;;;96.90;;
61673;SDS011;47573;43.832;5.974;2022-08-07T13:06:50;213.73;;;127.28;;
61673;SDS011;47573;43.832;5.974;2022-08-07T13:12:06;358.67;;;218.07;;
61673;SDS011;47573;43.832;5.974;2022-08-07T13:17:15;200.75;;;121.35;;
61673;SDS011;47573;43.832;5.974;2022-08-07T13:22:22;151.40;;;91.57;;
61673;SDS011;47573;43.832;5.974;2022-08-07T13:27:28;136.80;;;80.40;;
61673;SDS011;47573;43.832;5.974;2022-08-07T13:32:37;116.03;;;70.40;;
61673;SDS011;47573;43.832;5.974;2022-08-07T13:37:45;106.53;;;63.97;;
61673;SDS011;47573;43.832;5.974;2022-08-07T13:42:53;96.57;;;58.75;;
61673;SDS011;47573;43.832;5.974;2022-08-07T13:52:59;87.43;;;51.40;;
61673;SDS011;47573;43.832;5.974;2022-08-07T13:58:03;77.90;;;48.13;;
61673;SDS011;47573;43.832;5.974;2022-08-07T14:08:07;102.90;;;46.97;;
61673;SDS011;47573;43.832;5.974;2022-08-07T14:13:09;62.60;;;39.97;;
61673;SDS011;47573;43.832;5.974;2022-08-07T14:23:19;52.70;;;34.80;;
61673;SDS011;47573;43.832;5.974;2022-08-07T14:28:23;54.20;;;34.67;;
61673;SDS011;47573;43.832;5.974;2022-08-07T14:33:27;50.40;;;32.55;;
61673;SDS011;47573;43.832;5.974;2022-08-07T14:43:37;48.05;;;31.58;;
61673;SDS011;47573;43.832;5.974;2022-08-07T14:48:40;46.45;;;31.25;;
61673;SDS011;47573;43.832;5.974;2022-08-07T14:53:43;49.22;;;32.63;;
61673;SDS011;47573;43.832;5.974;2022-08-07T14:58:47;152.70;;;95.00;;
61673;SDS011;47573;43.832;5.974;2022-08-07T15:03:50;168.32;;;112.10;;
61673;SDS011;47573;43.832;5.974;2022-08-07T15:08:53;110.82;;;72.50;;
61673;SDS011;47573;43.832;5.974;2022-08-07T15:14:02;89.00;;;58.35;;
61673;SDS011;47573;43.832;5.974;2022-08-07T15:19:06;173.32;;;109.45;;
61673;SDS011;47573;43.832;5.974;2022-08-07T15:24:11;213.75;;;131.32;;
61673;SDS011;47573;43.832;5.974;2022-08-07T15:29:17;215.15;;;134.02;;
61673;SDS011;47573;43.832;5.974;2022-08-07T15:34:20;165.93;;;104.95;;
61673;SDS011;47573;43.832;5.974;2022-08-07T15:39:23;247.35;;;146.55;;
61673;SDS011;47573;43.832;5.974;2022-08-07T15:44:24;297.38;;;179.07;;
61673;SDS011;47573;43.832;5.974;2022-08-07T15:49:29;287.50;;;179.30;;
61673;SDS011;47573;43.832;5.974;2022-08-07T15:54:34;254.77;;;150.77;;
61673;SDS011;47573;43.832;5.974;2022-08-07T15:59:36;230.52;;;132.48;;
61673;SDS011;47573;43.832;5.974;2022-08-07T16:04:38;218.10;;;125.38;;
61673;SDS011;47573;43.832;5.974;2022-08-07T16:09:48;273.00;;;163.13;;
61673;SDS011;47573;43.832;5.974;2022-08-07T16:14:53;257.95;;;144.98;;
61673;SDS011;47573;43.832;5.974;2022-08-07T16:20:00;226.23;;;128.20;;
61673;SDS011;47573;43.832;5.974;2022-08-07T16:25:24;216.60;;;117.82;;
61673;SDS011;47573;43.832;5.974;2022-08-07T16:30:33;199.38;;;108.28;;
61673;SDS011;47573;43.832;5.974;2022-08-07T16:35:42;191.77;;;104.65;;
61673;SDS011;47573;43.832;5.974;2022-08-07T16:46:43;176.07;;;92.65;;
61673;SDS011;47573;43.832;5.974;2022-08-07T16:51:55;174.25;;;90.82;;
61673;SDS011;47573;43.832;5.974;2022-08-07T16:57:08;170.15;;;86.22;;
61673;SDS011;47573;43.832;5.974;2022-08-07T17:02:43;164.00;;;82.95;;
61673;SDS011;47573;43.832;5.974;2022-08-07T17:08:00;155.32;;;80.20;;
61673;SDS011;47573;43.832;5.974;2022-08-07T17:13:03;142.15;;;73.18;;
61673;SDS011;47573;43.832;5.974;2022-08-07T17:18:29;138.23;;;70.00;;
61673;SDS011;47573;43.832;5.974;2022-08-07T17:23:50;120.70;;;64.30;;
61673;SDS011;47573;43.832;5.974;2022-08-07T17:29:06;124.60;;;64.72;;
61673;SDS011;47573;43.832;5.974;2022-08-07T17:34:15;119.65;;;64.40;;
61673;SDS011;47573;43.832;5.974;2022-08-07T17:39:24;117.35;;;62.45;;
61673;SDS011;47573;43.832;5.974;2022-08-07T17:44:37;121.78;;;63.75;;
61673;SDS011;47573;43.832;5.974;2022-08-07T17:49:46;62.95;;;36.17;;
61673;SDS011;47573;43.832;5.974;2022-08-07T17:54:53;29.15;;;12.15;;
61673;SDS011;47573;43.832;5.974;2022-08-07T18:00:03;22.13;;;13.27;;
61673;SDS011;47573;43.832;5.974;2022-08-07T18:05:09;22.20;;;12.00;;
61673;SDS011;47573;43.832;5.974;2022-08-07T18:10:16;23.75;;;11.98;;
61673;SDS011;47573;43.832;5.974;2022-08-07T18:15:25;29.30;;;18.98;;
61673;SDS011;47573;43.832;5.974;2022-08-07T18:20:30;37.17;;;22.70;;
61673;SDS011;47573;43.832;5.974;2022-08-07T18:25:34;14.18;;;9.45;;
61673;SDS011;47573;43.832;5.974;2022-08-07T18:30:38;39.60;;;26.42;;
61673;SDS011;47573;43.832;5.974;2022-08-07T18:35:51;17.92;;;11.35;;
61673;SDS011;47573;43.832;5.974;2022-08-07T18:41:09;8.40;;;6.60;;
61673;SDS011;47573;43.832;5.974;2022-08-07T18:46:16;7.60;;;4.82;;
61673;SDS011;47573;43.832;5.974;2022-08-07T18:51:26;28.48;;;18.10;;
61673;SDS011;47573;43.832;5.974;2022-08-07T18:56:32;50.38;;;28.00;;
61673;SDS011;47573;43.832;5.974;2022-08-07T19:01:40;94.30;;;53.92;;
61673;SDS011;47573;43.832;5.974;2022-08-07T19:06:46;47.38;;;27.70;;
61673;SDS011;47573;43.832;5.974;2022-08-07T19:17:14;56.92;;;34.60;;
61673;SDS011;47573;43.832;5.974;2022-08-07T19:22:19;22.15;;;13.90;;
61673;SDS011;47573;43.832;5.974;2022-08-07T19:27:22;53.55;;;31.77;;
61673;SDS011;47573;43.832;5.974;2022-08-07T19:32:25;69.72;;;43.30;;
61673;SDS011;47573;43.832;5.974;2022-08-07T19:37:29;24.42;;;13.45;;
61673;SDS011;47573;43.832;5.974;2022-08-07T19:42:31;17.13;;;11.17;;
61673;SDS011;47573;43.832;5.974;2022-08-07T19:47:37;15.07;;;7.72;;
61673;SDS011;47573;43.832;5.974;2022-08-07T19:57:43;12.40;;;6.07;;
61673;SDS011;47573;43.832;5.974;2022-08-07T20:02:47;13.20;;;4.95;;
61673;SDS011;47573;43.832;5.974;2022-08-07T20:07:54;56.83;;;37.97;;
61673;SDS011;47573;43.832;5.974;2022-08-07T20:12:58;51.22;;;36.08;;
61673;SDS011;47573;43.832;5.974;2022-08-07T20:18:02;37.80;;;26.00;;
61673;SDS011;47573;43.832;5.974;2022-08-07T20:23:07;97.67;;;62.20;;
61673;SDS011;47573;43.832;5.974;2022-08-07T20:28:10;120.03;;;73.72;;
61673;SDS011;47573;43.832;5.974;2022-08-07T20:33:13;50.28;;;33.60;;
61673;SDS011;47573;43.832;5.974;2022-08-07T20:38:18;96.57;;;63.97;;
61673;SDS011;47573;43.832;5.974;2022-08-07T20:43:22;31.27;;;20.98;;
61673;SDS011;47573;43.832;5.974;2022-08-07T20:48:25;12.27;;;7.67;;
61673;SDS011;47573;43.832;5.974;2022-08-07T21:03:37;11.55;;;7.72;;
61673;SDS011;47573;43.832;5.974;2022-08-07T21:08:43;14.20;;;8.20;;
61673;SDS011;47573;43.832;5.974;2022-08-07T21:18:48;25.05;;;13.63;;
61673;SDS011;47573;43.832;5.974;2022-08-07T21:23:55;16.48;;;9.82;;
61673;SDS011;47573;43.832;5.974;2022-08-07T21:29:02;18.35;;;9.38;;
61673;SDS011;47573;43.832;5.974;2022-08-07T21:34:10;57.10;;;36.22;;
61673;SDS011;47573;43.832;5.974;2022-08-07T21:39:25;355.85;;;262.67;;
61673;SDS011;47573;43.832;5.974;2022-08-07T21:44:34;45.30;;;24.38;;
61673;SDS011;47573;43.832;5.974;2022-08-07T21:49:43;105.55;;;59.45;;
61673;SDS011;47573;43.832;5.974;2022-08-07T21:54:57;110.93;;;70.72;;
61673;SDS011;47573;43.832;5.974;2022-08-07T22:00:05;31.67;;;17.00;;
61673;SDS011;47573;43.832;5.974;2022-08-07T22:05:10;21.98;;;14.05;;
61673;SDS011;47573;43.832;5.974;2022-08-07T22:10:20;20.67;;;12.85;;
61673;SDS011;47573;43.832;5.974;2022-08-07T22:15:23;20.42;;;11.52;;
61673;SDS011;47573;43.832;5.974;2022-08-07T22:20:33;62.05;;;42.78;;
61673;SDS011;47573;43.832;5.974;2022-08-07T22:25:42;49.42;;;31.48;;
61673;SDS011;47573;43.832;5.974;2022-08-07T22:30:51;21.42;;;13.80;;
61673;SDS011;47573;43.832;5.974;2022-08-07T22:35:58;17.48;;;11.30;;
61673;SDS011;47573;43.832;5.974;2022-08-07T22:41:07;141.80;;;90.63;;
61673;SDS011;47573;43.832;5.974;2022-08-07T22:46:19;87.93;;;52.25;;
61673;SDS011;47573;43.832;5.974;2022-08-07T22:51:42;35.17;;;21.98;;
61673;SDS011;47573;43.832;5.974;2022-08-07T22:56:56;20.40;;;12.52;;
61673;SDS011;47573;43.832;5.974;2022-08-07T23:02:20;28.40;;;17.75;;
61673;SDS011;47573;43.832;5.974;2022-08-07T23:07:31;27.95;;;18.92;;
61673;SDS011;47573;43.832;5.974;2022-08-07T23:12:50;101.72;;;59.80;;
61673;SDS011;47573;43.832;5.974;2022-08-07T23:18:00;211.50;;;128.15;;
61673;SDS011;47573;43.832;5.974;2022-08-07T23:29:00;181.20;;;113.80;;
61673;SDS011;47573;43.832;5.974;2022-08-07T23:39:45;199.07;;;119.05;;
61673;SDS011;47573;43.832;5.974;2022-08-07T23:45:09;181.77;;;112.95;;
61673;SDS011;47573;43.832;5.974;2022-08-07T23:50:24;165.25;;;100.65;;
61673;SDS011;47573;43.832;5.974;2022-08-07T23:55:33;147.23;;;91.07;;
